PTSMC KPBI-KTMB
Flight info
| Callsign | PTSMC |
|---|---|
| Flight time | 0h 40m |
| Altitude | 6000 |
| Route | HEATT LONNI KUCEP QEPRO KAINS LUVLY |
| Aircraft | P28R/L-SG/C |
Departure
| Time | 2026-05-07 23:34 |
|---|---|
| Airport | Palm Beach International Airport (KPBI) |
Arrival
| Time | 2026-05-08 00:14 |
|---|---|
| Airport | Miami Executive Airport (KTMB) |
| Time | Latitude | Longitude | Altitude | Speed | Heading |
|---|---|---|---|---|---|
| 2026-05-07 23:30 | 26.67919 | -80.09990 | 19 ft | 0 kts | 270° |
| 2026-05-07 23:32 | 26.67919 | -80.09992 | 19 ft | 2 kts | 270° |
| 2026-05-07 23:32 | 26.67979 | -80.09993 | 19 ft | 17 kts | 23° |
| 2026-05-07 23:32 | 26.68058 | -80.09929 | 21 ft | 8 kts | 2° |
| 2026-05-07 23:32 | 26.68111 | -80.09924 | 22 ft | 8 kts | 6° |
| 2026-05-07 23:33 | 26.68190 | -80.09918 | 24 ft | 17 kts | 1° |
| 2026-05-07 23:33 | 26.68271 | -80.09799 | 23 ft | 29 kts | 93° |
| 2026-05-07 23:33 | 26.68271 | -80.09442 | 45 ft | 64 kts | 88° |
| 2026-05-07 23:33 | 26.68305 | -80.08854 | 161 ft | 84 kts | 90° |
| 2026-05-07 23:34 | 26.68322 | -80.08167 | 354 ft | 94 kts | 93° |
| 2026-05-07 23:34 | 26.68339 | -80.07440 | 594 ft | 94 kts | 89° |
| 2026-05-07 23:34 | 26.68374 | -80.06681 | 772 ft | 101 kts | 90° |
| 2026-05-07 23:34 | 26.68417 | -80.05879 | 959 ft | 106 kts | 90° |
| 2026-05-07 23:35 | 26.68467 | -80.05042 | 1114 ft | 111 kts | 91° |
| 2026-05-07 23:35 | 26.68519 | -80.04152 | 1247 ft | 118 kts | 89° |
| 2026-05-07 23:35 | 26.68573 | -80.03245 | 1375 ft | 119 kts | 89° |
| 2026-05-07 23:35 | 26.68628 | -80.02306 | 1501 ft | 122 kts | 90° |
| 2026-05-07 23:36 | 26.68683 | -80.01347 | 1631 ft | 126 kts | 89° |
| 2026-05-07 23:36 | 26.68437 | -80.00458 | 1741 ft | 125 kts | 139° |
| 2026-05-07 23:36 | 26.67597 | -80.00282 | 1850 ft | 127 kts | 183° |
| 2026-05-07 23:36 | 26.66720 | -80.00330 | 1979 ft | 126 kts | 181° |
| 2026-05-07 23:37 | 26.65800 | -80.00367 | 1976 ft | 137 kts | 181° |
| 2026-05-07 23:37 | 26.64830 | -80.00402 | 1968 ft | 142 kts | 180° |
| 2026-05-07 23:37 | 26.63835 | -80.00431 | 1972 ft | 144 kts | 181° |
| 2026-05-07 23:37 | 26.62840 | -80.00459 | 1961 ft | 145 kts | 180° |
| 2026-05-07 23:38 | 26.61838 | -80.00489 | 1961 ft | 144 kts | 181° |
| 2026-05-07 23:38 | 26.60845 | -80.00521 | 1967 ft | 143 kts | 181° |
| 2026-05-07 23:38 | 26.59850 | -80.00560 | 1962 ft | 143 kts | 180° |
| 2026-05-07 23:38 | 26.58852 | -80.00595 | 1967 ft | 144 kts | 181° |
| 2026-05-07 23:39 | 26.57847 | -80.00631 | 1965 ft | 145 kts | 181° |
| 2026-05-07 23:39 | 26.56836 | -80.00659 | 1965 ft | 145 kts | 181° |
| 2026-05-07 23:39 | 26.55827 | -80.00692 | 1964 ft | 145 kts | 181° |
| 2026-05-07 23:39 | 26.54824 | -80.00729 | 1962 ft | 143 kts | 181° |
| 2026-05-07 23:40 | 26.53832 | -80.00762 | 1961 ft | 142 kts | 180° |
| 2026-05-07 23:40 | 26.52856 | -80.00794 | 1963 ft | 142 kts | 181° |
| 2026-05-07 23:40 | 26.51892 | -80.00818 | 1953 ft | 135 kts | 181° |
| 2026-05-07 23:40 | 26.50970 | -80.00841 | 1951 ft | 130 kts | 181° |
| 2026-05-07 23:41 | 26.50069 | -80.00864 | 1949 ft | 129 kts | 181° |
| 2026-05-07 23:41 | 26.49184 | -80.00891 | 1948 ft | 126 kts | 180° |
| 2026-05-07 23:41 | 26.48317 | -80.00919 | 1949 ft | 123 kts | 180° |
| 2026-05-07 23:41 | 26.47463 | -80.00949 | 1954 ft | 123 kts | 181° |
| 2026-05-07 23:42 | 26.46608 | -80.00983 | 1954 ft | 124 kts | 183° |
| 2026-05-07 23:42 | 26.45747 | -80.01104 | 1952 ft | 125 kts | 187° |
| 2026-05-07 23:42 | 26.44881 | -80.01228 | 1955 ft | 126 kts | 187° |
| 2026-05-07 23:42 | 26.44026 | -80.01347 | 1957 ft | 125 kts | 186° |
| 2026-05-07 23:43 | 26.43170 | -80.01468 | 1959 ft | 123 kts | 188° |
| 2026-05-07 23:43 | 26.42325 | -80.01588 | 1954 ft | 122 kts | 186° |
| 2026-05-07 23:43 | 26.41486 | -80.01714 | 1951 ft | 122 kts | 187° |
| 2026-05-07 23:43 | 26.40643 | -80.01841 | 1956 ft | 123 kts | 187° |
| 2026-05-07 23:44 | 26.39784 | -80.01971 | 1964 ft | 125 kts | 187° |
| 2026-05-07 23:44 | 26.38919 | -80.02102 | 1958 ft | 126 kts | 187° |
| 2026-05-07 23:44 | 26.38051 | -80.02233 | 1965 ft | 126 kts | 187° |
| 2026-05-07 23:44 | 26.37182 | -80.02364 | 1961 ft | 125 kts | 187° |
| 2026-05-07 23:45 | 26.36338 | -80.02491 | 1960 ft | 124 kts | 187° |
| 2026-05-07 23:45 | 26.35485 | -80.02619 | 1958 ft | 123 kts | 187° |
| 2026-05-07 23:45 | 26.34636 | -80.02747 | 1961 ft | 122 kts | 187° |
| 2026-05-07 23:45 | 26.33789 | -80.02874 | 1956 ft | 124 kts | 187° |
| 2026-05-07 23:46 | 26.32938 | -80.03003 | 1955 ft | 124 kts | 187° |
| 2026-05-07 23:46 | 26.32082 | -80.03132 | 1959 ft | 125 kts | 187° |
| 2026-05-07 23:46 | 26.31224 | -80.03260 | 1958 ft | 124 kts | 187° |
| 2026-05-07 23:46 | 26.30375 | -80.03389 | 1959 ft | 122 kts | 187° |
| 2026-05-07 23:47 | 26.29532 | -80.03515 | 1957 ft | 122 kts | 187° |
| 2026-05-07 23:47 | 26.28690 | -80.03641 | 1948 ft | 122 kts | 186° |
| 2026-05-07 23:47 | 26.27844 | -80.03768 | 1952 ft | 122 kts | 187° |
| 2026-05-07 23:47 | 26.26996 | -80.03895 | 1957 ft | 124 kts | 188° |
| 2026-05-07 23:48 | 26.26155 | -80.04023 | 1956 ft | 123 kts | 187° |
| 2026-05-07 23:48 | 26.25312 | -80.04149 | 1949 ft | 121 kts | 187° |
| 2026-05-07 23:48 | 26.24480 | -80.04273 | 1951 ft | 120 kts | 188° |
| 2026-05-07 23:48 | 26.23691 | -80.04392 | 2081 ft | 111 kts | 187° |
| 2026-05-07 23:49 | 26.22944 | -80.04504 | 2214 ft | 107 kts | 188° |
| 2026-05-07 23:49 | 26.22209 | -80.04613 | 2350 ft | 106 kts | 188° |
| 2026-05-07 23:49 | 26.21464 | -80.04726 | 2420 ft | 110 kts | 188° |
| 2026-05-07 23:49 | 26.20707 | -80.04839 | 2492 ft | 113 kts | 189° |
| 2026-05-07 23:50 | 26.19903 | -80.04960 | 2503 ft | 119 kts | 188° |
| 2026-05-07 23:50 | 26.19087 | -80.05083 | 2496 ft | 122 kts | 188° |
| 2026-05-07 23:50 | 26.18238 | -80.05210 | 2496 ft | 124 kts | 188° |
| 2026-05-07 23:50 | 26.17378 | -80.05340 | 2498 ft | 125 kts | 188° |
| 2026-05-07 23:51 | 26.16514 | -80.05470 | 2503 ft | 126 kts | 188° |
| 2026-05-07 23:51 | 26.15643 | -80.05600 | 2497 ft | 127 kts | 189° |
| 2026-05-07 23:51 | 26.14774 | -80.05731 | 2496 ft | 126 kts | 188° |
| 2026-05-07 23:51 | 26.13902 | -80.05861 | 2487 ft | 127 kts | 188° |
| 2026-05-07 23:52 | 26.13030 | -80.05992 | 2485 ft | 127 kts | 188° |
| 2026-05-07 23:52 | 26.12167 | -80.06121 | 2488 ft | 127 kts | 188° |
| 2026-05-07 23:52 | 26.11291 | -80.06252 | 2489 ft | 127 kts | 188° |
| 2026-05-07 23:52 | 26.10417 | -80.06384 | 2486 ft | 127 kts | 188° |
| 2026-05-07 23:53 | 26.09540 | -80.06515 | 2490 ft | 127 kts | 188° |
| 2026-05-07 23:53 | 26.08660 | -80.06647 | 2487 ft | 127 kts | 188° |
| 2026-05-07 23:53 | 26.07786 | -80.06778 | 2484 ft | 127 kts | 188° |
| 2026-05-07 23:53 | 26.06912 | -80.06909 | 2489 ft | 126 kts | 188° |
| 2026-05-07 23:54 | 26.06042 | -80.07039 | 2481 ft | 126 kts | 188° |
| 2026-05-07 23:54 | 26.05174 | -80.07169 | 2479 ft | 127 kts | 188° |
| 2026-05-07 23:54 | 26.04298 | -80.07300 | 2487 ft | 127 kts | 188° |
| 2026-05-07 23:54 | 26.03431 | -80.07483 | 2486 ft | 126 kts | 189° |
| 2026-05-07 23:55 | 26.02559 | -80.07613 | 2484 ft | 127 kts | 188° |
| 2026-05-07 23:55 | 26.01703 | -80.07752 | 2480 ft | 126 kts | 189° |
| 2026-05-07 23:55 | 26.00838 | -80.07898 | 2480 ft | 126 kts | 189° |
| 2026-05-07 23:55 | 25.99972 | -80.08046 | 2483 ft | 127 kts | 190° |
| 2026-05-07 23:56 | 25.99084 | -80.08200 | 2488 ft | 131 kts | 190° |
| 2026-05-07 23:56 | 25.98180 | -80.08357 | 2488 ft | 133 kts | 189° |
| 2026-05-07 23:56 | 25.97265 | -80.08515 | 2486 ft | 133 kts | 189° |
| 2026-05-07 23:56 | 25.96348 | -80.08674 | 2490 ft | 134 kts | 190° |
| 2026-05-07 23:57 | 25.95427 | -80.08834 | 2481 ft | 134 kts | 189° |
| 2026-05-07 23:57 | 25.94507 | -80.08993 | 2487 ft | 134 kts | 190° |
| 2026-05-07 23:57 | 25.93582 | -80.09154 | 2487 ft | 135 kts | 190° |
| 2026-05-07 23:57 | 25.92665 | -80.09312 | 2487 ft | 135 kts | 190° |
| 2026-05-07 23:58 | 25.91723 | -80.09476 | 2405 ft | 141 kts | 189° |
| 2026-05-07 23:58 | 25.90757 | -80.09643 | 2266 ft | 138 kts | 189° |
| 2026-05-07 23:58 | 25.89824 | -80.09764 | 2108 ft | 133 kts | 186° |
| 2026-05-07 23:58 | 25.88913 | -80.09860 | 1959 ft | 130 kts | 185° |
| 2026-05-07 23:59 | 25.88015 | -80.09964 | 1791 ft | 129 kts | 186° |
| 2026-05-07 23:59 | 25.87119 | -80.10073 | 1627 ft | 131 kts | 185° |
| 2026-05-07 23:59 | 25.86213 | -80.10197 | 1479 ft | 130 kts | 186° |
| 2026-05-07 23:59 | 25.85378 | -80.10317 | 1501 ft | 115 kts | 186° |
| 2026-05-08 00:00 | 25.84855 | -80.10390 | 1501 ft | 114 kts | 186° |
| 2026-05-08 00:00 | 25.84081 | -80.10491 | 1493 ft | 108 kts | 186° |
| 2026-05-08 00:00 | 25.83103 | -80.10610 | 1488 ft | 105 kts | 186° |
| 2026-05-08 00:00 | 25.82394 | -80.10705 | 1487 ft | 100 kts | 185° |
| 2026-05-08 00:01 | 25.81692 | -80.10802 | 1489 ft | 104 kts | 186° |
| 2026-05-08 00:01 | 25.80980 | -80.10908 | 1501 ft | 105 kts | 187° |
| 2026-05-08 00:01 | 25.80493 | -80.10975 | 1503 ft | 107 kts | 185° |
| 2026-05-08 00:01 | 25.79504 | -80.11132 | 1505 ft | 107 kts | 187° |
| 2026-05-08 00:02 | 25.79014 | -80.11195 | 1512 ft | 106 kts | 186° |
| 2026-05-08 00:02 | 25.78286 | -80.11281 | 1503 ft | 106 kts | 186° |
| 2026-05-08 00:02 | 25.77563 | -80.11375 | 1502 ft | 104 kts | 187° |
| 2026-05-08 00:02 | 25.76618 | -80.11493 | 1497 ft | 103 kts | 185° |
| 2026-05-08 00:03 | 25.76133 | -80.11551 | 1498 ft | 106 kts | 186° |
| 2026-05-08 00:03 | 25.75385 | -80.11644 | 1500 ft | 110 kts | 186° |
| 2026-05-08 00:03 | 25.74357 | -80.11782 | 1512 ft | 113 kts | 186° |
| 2026-05-08 00:03 | 25.73831 | -80.11850 | 1508 ft | 115 kts | 186° |
| 2026-05-08 00:04 | 25.73033 | -80.11953 | 1495 ft | 114 kts | 184° |
| 2026-05-08 00:04 | 25.72250 | -80.12052 | 1496 ft | 112 kts | 185° |
| 2026-05-08 00:04 | 25.71485 | -80.12145 | 1504 ft | 110 kts | 185° |
| 2026-05-08 00:04 | 25.70723 | -80.12237 | 1489 ft | 111 kts | 185° |
| 2026-05-08 00:05 | 25.69960 | -80.12322 | 1499 ft | 111 kts | 186° |
| 2026-05-08 00:05 | 25.69184 | -80.12405 | 1499 ft | 113 kts | 185° |
| 2026-05-08 00:05 | 25.68411 | -80.12566 | 1498 ft | 116 kts | 209° |
| 2026-05-08 00:05 | 25.68090 | -80.13360 | 1495 ft | 123 kts | 265° |
| 2026-05-08 00:06 | 25.68077 | -80.14307 | 1503 ft | 123 kts | 264° |
| 2026-05-08 00:06 | 25.68017 | -80.15250 | 1499 ft | 122 kts | 257° |
| 2026-05-08 00:06 | 25.67811 | -80.16150 | 1506 ft | 119 kts | 250° |
| 2026-05-08 00:06 | 25.67598 | -80.17031 | 1509 ft | 118 kts | 251° |
| 2026-05-08 00:07 | 25.67366 | -80.17910 | 1510 ft | 118 kts | 246° |
| 2026-05-08 00:07 | 25.67019 | -80.18727 | 1494 ft | 117 kts | 240° |
| 2026-05-08 00:07 | 25.66668 | -80.19533 | 1498 ft | 117 kts | 240° |
| 2026-05-08 00:07 | 25.66309 | -80.20356 | 1495 ft | 119 kts | 240° |
| 2026-05-08 00:08 | 25.65952 | -80.21172 | 1502 ft | 119 kts | 240° |
| 2026-05-08 00:08 | 25.65592 | -80.22008 | 1510 ft | 118 kts | 240° |
| 2026-05-08 00:08 | 25.65250 | -80.22821 | 1503 ft | 117 kts | 245° |
| 2026-05-08 00:08 | 25.65099 | -80.23711 | 1493 ft | 117 kts | 263° |
| 2026-05-08 00:09 | 25.65039 | -80.24601 | 1490 ft | 115 kts | 263° |
| 2026-05-08 00:09 | 25.64979 | -80.25491 | 1506 ft | 117 kts | 261° |
| 2026-05-08 00:09 | 25.64898 | -80.26401 | 1497 ft | 118 kts | 261° |
| 2026-05-08 00:09 | 25.64814 | -80.27314 | 1508 ft | 119 kts | 263° |
| 2026-05-08 00:10 | 25.64769 | -80.28243 | 1493 ft | 121 kts | 264° |
| 2026-05-08 00:10 | 25.64740 | -80.29156 | 1483 ft | 121 kts | 264° |
| 2026-05-08 00:10 | 25.64745 | -80.30092 | 1492 ft | 123 kts | 266° |
| 2026-05-08 00:10 | 25.64759 | -80.31047 | 1487 ft | 123 kts | 265° |
| 2026-05-08 00:11 | 25.64767 | -80.31983 | 1491 ft | 121 kts | 266° |
| 2026-05-08 00:11 | 25.64760 | -80.32937 | 1418 ft | 126 kts | 265° |
| 2026-05-08 00:11 | 25.64687 | -80.33905 | 1289 ft | 125 kts | 261° |
| 2026-05-08 00:11 | 25.64610 | -80.34851 | 828 ft | 126 kts | 262° |
| 2026-05-08 00:12 | 25.64604 | -80.35731 | 733 ft | 104 kts | 269° |
| 2026-05-08 00:12 | 25.64631 | -80.36509 | 658 ft | 100 kts | 265° |
| 2026-05-08 00:12 | 25.64587 | -80.37274 | 663 ft | 100 kts | 263° |
| 2026-05-08 00:12 | 25.64535 | -80.38028 | 628 ft | 99 kts | 266° |
| 2026-05-08 00:13 | 25.64514 | -80.38786 | 636 ft | 98 kts | 264° |
| 2026-05-08 00:13 | 25.64477 | -80.39546 | 604 ft | 95 kts | 268° |
| 2026-05-08 00:13 | 25.64453 | -80.40254 | 463 ft | 90 kts | 265° |
| 2026-05-08 00:13 | 25.64417 | -80.40916 | 316 ft | 83 kts | 265° |
| 2026-05-08 00:14 | 25.64390 | -80.41531 | 205 ft | 79 kts | 266° |
| 2026-05-08 00:14 | 25.64367 | -80.42130 | 80 ft | 75 kts | 269° |
| 2026-05-08 00:14 | 25.64345 | -80.42670 | 23 ft | 62 kts | 268° |
| 2026-05-08 00:14 | 25.64337 | -80.43040 | 12 ft | 19 kts | 266° |
| 2026-05-08 00:15 | 25.64332 | -80.43177 | 11 ft | 16 kts | 267° |
| 2026-05-08 00:15 | 25.64329 | -80.43276 | 8 ft | 9 kts | 282° |
| 2026-05-08 00:15 | 25.64369 | -80.43328 | 7 ft | 9 kts | 333° |
| 2026-05-08 00:15 | 25.64422 | -80.43342 | 7 ft | 7 kts | 0° |
| 2026-05-08 00:16 | 25.64462 | -80.43337 | 7 ft | 5 kts | 48° |
| 2026-05-08 00:16 | 25.64468 | -80.43305 | 7 ft | 4 kts | 88° |
| 2026-05-08 00:16 | 25.64470 | -80.43268 | 7 ft | 9 kts | 90° |
| 2026-05-08 00:16 | 25.64477 | -80.43152 | 9 ft | 19 kts | 89° |
| 2026-05-08 00:17 | 25.64480 | -80.43049 | 11 ft | 8 kts | 86° |
| 2026-05-08 00:17 | 25.64467 | -80.43018 | 12 ft | 12 kts | 137° |
| 2026-05-08 00:17 | 25.64453 | -80.42905 | 13 ft | 18 kts | 89° |
| 2026-05-08 00:17 | 25.64523 | -80.42867 | 15 ft | 13 kts | 354° |
| 2026-05-08 00:18 | 25.64557 | -80.42882 | 15 ft | 12 kts | 279° |
| 2026-05-08 00:18 | 25.64543 | -80.42898 | 15 ft | 0 kts | 175° |